createdAt,value
2022-11-24T00:01:18.954Z,11.05
2022-11-24T00:03:46.970Z,8.82
2022-11-24T00:06:15.456Z,14.20
2022-11-24T00:08:44.096Z,9.00
2022-11-24T00:11:16.662Z,9.20
2022-11-24T00:13:44.025Z,12.52
2022-11-24T00:16:13.052Z,9.18
2022-11-24T00:18:40.860Z,10.45
2022-11-24T00:21:07.518Z,11.63
2022-11-24T00:23:35.386Z,9.75
2022-11-24T00:26:10.929Z,9.10
2022-11-24T00:28:38.242Z,19.85
2022-11-24T00:31:16.985Z,9.95
2022-11-24T00:33:44.949Z,9.00
2022-11-24T00:36:11.474Z,11.10
2022-11-24T00:38:37.826Z,15.48
2022-11-24T00:41:04.383Z,10.88
2022-11-24T00:43:30.744Z,9.63
2022-11-24T00:45:58.278Z,9.75
2022-11-24T00:48:24.702Z,10.50
2022-11-24T00:51:06.618Z,13.73
2022-11-24T00:53:33.401Z,9.80
2022-11-24T00:55:59.954Z,13.60
2022-11-24T00:58:26.744Z,10.55
2022-11-24T01:00:53.306Z,12.85
2022-11-24T01:03:21.130Z,10.45
2022-11-24T01:05:47.506Z,12.48
2022-11-24T01:08:14.933Z,8.82
2022-11-24T01:10:41.328Z,12.18
2022-11-24T01:13:07.685Z,9.57
2022-11-24T01:15:36.239Z,11.50
2022-11-24T01:18:03.970Z,14.43
2022-11-24T01:20:31.395Z,13.10
2022-11-24T01:22:57.815Z,14.85
2022-11-24T01:25:24.243Z,12.40
2022-11-24T01:27:50.694Z,11.77
2022-11-24T01:30:17.310Z,13.57
2022-11-24T01:32:43.757Z,13.35
2022-11-24T01:35:10.242Z,14.23
2022-11-24T01:37:36.649Z,14.52
2022-11-24T01:40:04.460Z,9.82
2022-11-24T01:42:43.238Z,9.57
2022-11-24T01:45:31.237Z,10.48
2022-11-24T01:47:58.100Z,9.50
2022-11-24T01:50:24.828Z,13.80
2022-11-24T01:52:53.879Z,14.95
2022-11-24T01:55:29.857Z,20.10
2022-11-24T01:58:06.265Z,13.98
2022-11-24T02:00:37.131Z,10.50
2022-11-24T02:03:03.818Z,12.68
2022-11-24T02:05:49.787Z,15.07
2022-11-24T02:08:45.051Z,12.23
2022-11-24T02:11:11.412Z,13.63
2022-11-24T02:13:39.954Z,12.85
2022-11-24T02:16:09.176Z,11.48
2022-11-24T02:18:38.287Z,12.95
2022-11-24T02:21:05.850Z,8.85
2022-11-24T02:23:47.336Z,11.32
2022-11-24T02:26:22.442Z,10.57
2022-11-24T02:28:49.930Z,10.85
2022-11-24T02:31:16.447Z,12.63
2022-11-24T02:33:43.936Z,13.40
2022-11-24T02:36:10.352Z,15.32
2022-11-24T02:38:36.792Z,12.50
2022-11-24T02:41:07.606Z,12.57
2022-11-24T02:43:43.390Z,15.23
2022-11-24T02:46:10.984Z,14.60
2022-11-24T02:48:38.639Z,9.02
2022-11-24T02:51:05.391Z,8.60
2022-11-24T02:53:31.890Z,9.07
2022-11-24T02:55:58.248Z,11.50
2022-11-24T02:58:24.679Z,10.55
2022-11-24T03:00:54.122Z,10.85
2022-11-24T03:03:21.546Z,16.48
2022-11-24T03:05:48.014Z,14.77
2022-11-24T03:08:14.400Z,12.93
2022-11-24T03:10:40.884Z,14.15
2022-11-24T03:13:07.340Z,11.70
2022-11-24T03:15:34.288Z,16.25
2022-11-24T03:18:00.712Z,12.15
2022-11-24T03:20:27.277Z,12.02
2022-11-24T03:22:53.650Z,10.50
2022-11-24T03:25:20.130Z,15.50
2022-11-24T03:27:46.935Z,14.57
2022-11-24T03:30:14.501Z,13.52
2022-11-24T03:32:41.863Z,10.63
2022-11-24T03:35:09.034Z,12.63
2022-11-24T03:37:35.399Z,12.52
2022-11-24T03:40:01.941Z,11.50
2022-11-24T03:42:28.280Z,12.15
2022-11-24T03:44:54.747Z,11.88
2022-11-24T03:47:21.091Z,8.95
2022-11-24T03:49:47.555Z,12.32
2022-11-24T03:52:13.915Z,11.82
2022-11-24T03:54:40.336Z,18.90
2022-11-24T03:57:07.829Z,16.08
2022-11-24T03:59:34.217Z,14.40
2022-11-24T04:02:00.636Z,10.45
2022-11-24T04:04:27.477Z,16.30
2022-11-24T04:06:53.824Z,13.90
2022-11-24T04:09:20.282Z,17.20
2022-11-24T04:12:05.422Z,9.43
2022-11-24T04:14:32.124Z,11.90
2022-11-24T04:16:58.657Z,11.68
2022-11-24T04:19:25.015Z,11.82
2022-11-24T04:21:51.420Z,14.90
2022-11-24T04:24:17.775Z,12.10
2022-11-24T04:26:44.207Z,12.32
2022-11-24T04:29:10.702Z,14.38
2022-11-24T04:31:37.086Z,18.67
2022-11-24T04:34:03.704Z,16.73
2022-11-24T04:36:30.217Z,11.35
2022-11-24T04:39:24.541Z,13.27
2022-11-24T04:41:43.063Z,9.90
2022-11-24T04:44:09.473Z,12.95
2022-11-24T04:46:35.877Z,10.52
2022-11-24T04:49:02.687Z,11.95
2022-11-24T04:51:29.044Z,11.35
2022-11-24T04:53:55.430Z,9.35
2022-11-24T04:56:21.771Z,14.00
2022-11-24T04:58:49.432Z,12.48
2022-11-24T05:01:15.864Z,10.90
2022-11-24T05:03:42.316Z,9.35
2022-11-24T05:06:08.878Z,12.68
2022-11-24T05:08:35.351Z,14.57
2022-11-24T05:11:06.280Z,19.02
2022-11-24T05:13:32.746Z,10.27
2022-11-24T05:16:00.172Z,12.63
2022-11-24T05:18:26.739Z,10.75
2022-11-24T05:20:53.091Z,12.05
2022-11-24T05:23:19.508Z,14.85
2022-11-24T05:25:47.801Z,13.82
2022-11-24T05:28:14.465Z,22.45
2022-11-24T05:30:41.376Z,14.13
2022-11-24T05:33:12.000Z,17.05
2022-11-24T05:35:38.593Z,14.68
2022-11-24T05:38:04.949Z,15.05
2022-11-24T05:40:31.856Z,11.52
2022-11-24T05:42:58.241Z,14.00
2022-11-24T05:45:24.782Z,12.27
2022-11-24T05:47:51.471Z,14.93
2022-11-24T05:50:20.011Z,12.40
2022-11-24T05:52:46.701Z,19.23
2022-11-24T05:55:15.040Z,12.63
2022-11-24T05:57:42.199Z,15.50
2022-11-24T06:00:10.050Z,12.98
2022-11-24T06:02:39.743Z,21.38
2022-11-24T06:05:06.630Z,17.02
2022-11-24T06:07:33.027Z,15.75
2022-11-24T06:09:59.518Z,11.30
2022-11-24T06:12:25.861Z,15.63
2022-11-24T06:14:52.449Z,14.00
2022-11-24T06:17:18.799Z,21.75
2022-11-24T06:19:47.877Z,13.38
2022-11-24T06:22:14.306Z,17.65
2022-11-24T06:24:40.743Z,18.17
2022-11-24T06:27:07.583Z,18.05
2022-11-24T06:29:33.914Z,17.92
2022-11-24T06:32:00.460Z,11.40
2022-11-24T06:34:26.846Z,13.82
2022-11-24T06:36:53.436Z,14.52
2022-11-24T06:39:19.798Z,17.08
2022-11-24T06:41:46.284Z,17.73
2022-11-24T06:44:12.788Z,12.00
2022-11-24T06:46:39.155Z,15.25
2022-11-24T06:49:05.555Z,13.18
2022-11-24T06:51:32.018Z,14.52
2022-11-24T06:53:58.381Z,14.90
2022-11-24T06:56:24.871Z,13.88
2022-11-24T06:58:52.881Z,16.92
2022-11-24T07:01:24.981Z,16.27
2022-11-24T07:03:52.415Z,17.33
2022-11-24T07:06:20.040Z,16.30
2022-11-24T07:08:46.868Z,13.65
2022-11-24T07:11:19.558Z,20.67
2022-11-24T07:13:46.958Z,14.95
2022-11-24T07:16:18.862Z,12.45
2022-11-24T07:18:47.059Z,12.10
2022-11-24T07:21:14.160Z,11.70
2022-11-24T07:23:40.761Z,13.68
2022-11-24T07:26:08.931Z,15.25
2022-11-24T07:28:36.789Z,16.42
2022-11-24T07:31:11.817Z,22.15
2022-11-24T07:33:38.741Z,12.95
2022-11-24T07:36:09.585Z,17.02
2022-11-24T07:38:36.215Z,14.25
2022-11-24T07:41:04.775Z,15.95
2022-11-24T07:43:32.850Z,12.25
2022-11-24T07:45:59.898Z,15.27
2022-11-24T07:48:27.006Z,21.23
2022-11-24T07:50:56.072Z,16.65
2022-11-24T07:53:22.927Z,26.60
2022-11-24T07:56:00.364Z,19.70
2022-11-24T07:58:32.325Z,17.40
2022-11-24T08:00:59.874Z,17.00
2022-11-24T08:03:26.537Z,18.35
2022-11-24T08:08:43.488Z,16.63
2022-11-24T08:11:12.534Z,18.67
2022-11-24T08:13:39.623Z,15.68
2022-11-24T08:16:11.707Z,18.40
2022-11-24T08:18:38.987Z,14.88
2022-11-24T08:21:06.627Z,18.02
2022-11-24T08:23:33.670Z,18.52
2022-11-24T08:26:05.070Z,18.20
2022-11-24T08:28:32.875Z,16.10
2022-11-24T08:31:07.364Z,13.75
2022-11-24T08:33:33.774Z,21.05
2022-11-24T08:36:12.285Z,20.35
2022-11-24T08:38:39.059Z,27.67
2022-11-24T08:41:10.955Z,24.63
2022-11-24T08:43:37.724Z,16.55
2022-11-24T08:46:11.029Z,17.15
2022-11-24T08:48:37.883Z,23.42
2022-11-24T08:51:12.233Z,23.67
2022-11-24T08:53:39.858Z,15.70
2022-11-24T08:56:07.110Z,20.23
2022-11-24T08:58:33.697Z,16.58
2022-11-24T09:01:10.173Z,17.48
2022-11-24T09:03:37.708Z,19.23
2022-11-24T09:06:04.219Z,21.13
2022-11-24T09:08:31.109Z,17.90
2022-11-24T09:11:01.914Z,24.00
2022-11-24T09:13:28.694Z,23.05
2022-11-24T09:15:55.168Z,24.73
2022-11-24T09:18:22.757Z,19.77
2022-11-24T09:20:50.803Z,20.80
2022-11-24T09:23:17.150Z,23.77
2022-11-24T09:25:43.574Z,17.98
2022-11-24T09:28:09.927Z,18.38
2022-11-24T09:30:36.339Z,17.08
2022-11-24T09:33:02.907Z,19.50
2022-11-24T09:35:29.279Z,19.70
2022-11-24T09:37:55.717Z,18.27
2022-11-24T09:40:22.711Z,17.27
2022-11-24T09:43:35.186Z,19.58
2022-11-24T09:46:30.576Z,20.80
2022-11-24T09:48:58.282Z,18.25
2022-11-24T09:51:29.307Z,20.25
2022-11-24T09:54:03.206Z,18.95
2022-11-24T09:56:34.472Z,21.42
2022-11-24T09:59:24.659Z,19.50
2022-11-24T10:01:52.263Z,24.83
2022-11-24T10:04:39.166Z,22.38
2022-11-24T10:07:30.379Z,17.92
2022-11-24T10:10:07.822Z,17.10
2022-11-24T10:12:48.743Z,23.77
2022-11-24T10:15:33.496Z,16.10
2022-11-24T10:18:14.940Z,19.70
2022-11-24T10:21:01.877Z,27.70
2022-11-24T10:24:08.870Z,19.08
2022-11-24T10:26:38.172Z,21.55
2022-11-24T10:29:26.725Z,22.15
2022-11-24T10:31:57.811Z,15.90
2022-11-24T10:34:34.986Z,21.10
2022-11-24T10:37:25.985Z,25.45
2022-11-24T10:40:21.348Z,22.10
2022-11-24T10:42:56.338Z,23.30
2022-11-24T10:45:22.932Z,29.20
2022-11-24T10:47:49.535Z,23.67
2022-11-24T10:50:23.217Z,22.63
2022-11-24T10:53:01.705Z,24.17
2022-11-24T10:55:57.114Z,23.67
2022-11-24T10:58:38.596Z,16.85
2022-11-24T11:01:14.367Z,24.13
2022-11-24T11:03:59.579Z,24.38
2022-11-24T11:06:31.166Z,25.17
2022-11-24T11:09:06.836Z,16.90
2022-11-24T11:11:39.073Z,17.05
2022-11-24T11:14:11.049Z,20.20
2022-11-24T11:16:43.530Z,17.00
2022-11-24T11:22:24.558Z,18.95
2022-11-24T11:25:07.377Z,20.23
2022-11-24T11:27:33.756Z,22.75
2022-11-24T11:35:48.253Z,24.25
2022-11-24T11:38:15.138Z,19.70
2022-11-24T11:40:43.675Z,21.75
2022-11-24T11:43:27.145Z,19.92
2022-11-24T11:46:03.510Z,22.05
2022-11-24T11:48:43.216Z,20.27
2022-11-24T11:51:26.107Z,20.65
2022-11-24T11:54:20.511Z,19.45
2022-11-24T11:57:01.513Z,27.45
2022-11-24T11:59:54.975Z,30.50
2022-11-24T12:02:51.662Z,26.15
2022-11-24T12:05:28.451Z,25.67
2022-11-24T12:08:21.594Z,17.67
2022-11-24T12:10:59.763Z,29.33
2022-11-24T12:13:45.685Z,29.63
2022-11-24T12:16:29.649Z,31.52
2022-11-24T12:19:05.208Z,29.80
2022-11-24T12:21:58.696Z,24.85
2022-11-24T12:24:34.422Z,30.83
2022-11-24T12:27:31.256Z,25.75
2022-11-24T12:30:13.334Z,35.90
2022-11-24T12:32:58.203Z,26.63
2022-11-24T12:36:11.497Z,28.60
2022-11-24T12:39:02.269Z,27.52
2022-11-24T12:41:42.188Z,27.10
2022-11-24T12:44:30.643Z,28.85
2022-11-24T12:47:09.447Z,21.45
2022-11-24T12:49:57.076Z,24.35
2022-11-24T12:52:31.053Z,20.20
2022-11-24T12:54:58.770Z,32.88
2022-11-24T12:57:34.958Z,25.40
2022-11-24T13:00:19.279Z,19.27
2022-11-24T13:03:06.845Z,26.55
2022-11-24T13:05:58.684Z,23.30
2022-11-24T13:08:27.897Z,21.42
2022-11-24T13:10:56.190Z,36.10
2022-11-24T13:13:28.647Z,26.80
2022-11-24T13:16:34.748Z,31.30
2022-11-24T13:18:56.809Z,23.65
2022-11-24T13:21:31.670Z,27.70
2022-11-24T13:24:05.509Z,24.63
2022-11-24T13:26:47.223Z,32.40
2022-11-24T13:29:30.490Z,23.40
2022-11-24T13:32:02.907Z,26.38
2022-11-24T13:34:38.597Z,32.17
2022-11-24T13:37:37.487Z,28.10
2022-11-24T13:40:13.149Z,25.75
2022-11-24T13:42:54.616Z,24.20
2022-11-24T13:45:39.336Z,21.80
2022-11-24T13:48:21.421Z,25.40
2022-11-24T13:50:52.226Z,24.15
2022-11-24T13:53:37.301Z,24.23
2022-11-24T13:56:21.178Z,28.33
2022-11-24T13:59:27.805Z,22.60
2022-11-24T14:01:58.277Z,27.77
2022-11-24T14:04:31.804Z,24.50
2022-11-24T14:07:14.244Z,25.83
2022-11-24T14:09:44.628Z,27.00
2022-11-24T14:12:19.312Z,23.38
2022-11-24T14:14:47.856Z,34.83
2022-11-24T14:17:19.114Z,34.25
2022-11-24T14:19:48.043Z,19.55
2022-11-24T14:22:21.833Z,29.73
2022-11-24T14:24:56.647Z,25.17
2022-11-24T14:27:32.275Z,23.30
2022-11-24T14:30:02.037Z,26.20
2022-11-24T14:32:28.768Z,27.15
2022-11-24T14:34:56.701Z,20.10
2022-11-24T14:37:23.215Z,25.80
2022-11-24T14:39:49.571Z,22.58
2022-11-24T14:42:19.115Z,26.15
2022-11-24T14:44:48.200Z,25.92
2022-11-24T14:47:30.818Z,23.05
2022-11-24T14:50:07.639Z,27.15
2022-11-24T14:52:35.197Z,31.10
2022-11-24T14:55:21.535Z,33.65
2022-11-24T14:57:48.192Z,27.27
2022-11-24T15:00:20.779Z,28.63
2022-11-24T15:02:51.927Z,31.58
2022-11-24T15:05:20.550Z,25.40
2022-11-24T15:07:49.294Z,28.13
2022-11-24T15:10:38.576Z,25.52
2022-11-24T15:13:15.226Z,29.02
2022-11-24T15:15:49.313Z,23.70
2022-11-24T15:18:27.650Z,40.63
2022-11-24T15:20:54.704Z,30.65
2022-11-24T15:23:35.575Z,27.17
2022-11-24T15:26:01.899Z,26.80
2022-11-24T15:28:31.723Z,25.83
2022-11-24T15:31:06.312Z,24.98
2022-11-24T15:33:32.895Z,22.67
2022-11-24T15:35:59.801Z,25.75
2022-11-24T15:38:26.361Z,23.70
2022-11-24T15:40:55.675Z,25.30
2022-11-24T15:43:36.275Z,23.48
2022-11-24T15:46:03.797Z,17.77
2022-11-24T15:48:30.162Z,21.08
2022-11-24T15:50:58.001Z,22.85
2022-11-24T15:53:30.251Z,26.10
2022-11-24T15:55:57.615Z,20.45
2022-11-24T15:58:24.413Z,19.17
2022-11-24T16:00:53.400Z,30.77
2022-11-24T16:06:15.027Z,16.05
2022-11-24T16:08:43.420Z,23.08
2022-11-24T16:11:09.901Z,20.30
2022-11-24T16:13:36.319Z,30.92
2022-11-24T16:16:03.430Z,27.17
2022-11-24T16:18:31.496Z,25.75
2022-11-24T16:20:58.472Z,21.73
2022-11-24T16:23:24.930Z,20.67
2022-11-24T16:25:51.269Z,22.40
2022-11-24T16:28:17.916Z,29.35
2022-11-24T16:30:48.748Z,21.23
2022-11-24T16:33:15.429Z,28.30
2022-11-24T16:35:41.777Z,33.28
2022-11-24T16:38:15.468Z,23.73
2022-11-24T16:40:41.859Z,21.17
2022-11-24T16:43:08.201Z,23.88
2022-11-24T16:45:36.148Z,25.20
2022-11-24T16:48:05.080Z,20.35
2022-11-24T16:50:31.445Z,25.30
2022-11-24T16:52:57.935Z,19.02
2022-11-24T16:55:24.270Z,32.63
2022-11-24T16:57:50.751Z,24.63
2022-11-24T17:00:17.738Z,21.13
2022-11-24T17:02:44.204Z,15.00
2022-11-24T17:05:10.693Z,24.27
2022-11-24T17:07:37.135Z,22.60
2022-11-24T17:10:03.928Z,22.80
2022-11-24T17:12:30.314Z,22.23
2022-11-24T17:15:16.781Z,18.60
2022-11-24T17:18:08.275Z,21.63
2022-11-24T17:20:31.460Z,22.48
2022-11-24T17:22:57.802Z,16.42
2022-11-24T17:25:24.219Z,19.20
2022-11-24T17:27:51.577Z,20.95
2022-11-24T17:30:18.003Z,16.70
2022-11-24T17:32:44.451Z,23.98
2022-11-24T17:35:11.859Z,21.00
2022-11-24T17:37:38.275Z,21.58
2022-11-24T17:40:27.398Z,27.60
2022-11-24T17:42:53.453Z,29.77
2022-11-24T17:45:19.892Z,25.38
2022-11-24T17:47:46.376Z,31.15
2022-11-24T17:50:12.806Z,29.65
2022-11-24T17:52:39.227Z,32.75
2022-11-24T17:55:05.930Z,31.85
2022-11-24T17:57:32.372Z,19.83
2022-11-24T17:59:58.719Z,20.17
2022-11-24T18:02:25.198Z,18.00
2022-11-24T18:04:51.610Z,28.15
2022-11-24T18:07:18.019Z,22.60
2022-11-24T18:09:44.410Z,21.05
2022-11-24T18:12:10.849Z,21.13
2022-11-24T18:14:37.509Z,24.00
2022-11-24T18:17:04.326Z,24.35
2022-11-24T18:19:30.895Z,17.05
2022-11-24T18:21:57.327Z,17.88
2022-11-24T18:24:24.373Z,19.38
2022-11-24T18:26:50.805Z,20.25
2022-11-24T18:29:17.238Z,23.80
2022-11-24T18:31:43.624Z,21.02
2022-11-24T18:34:09.982Z,21.58
2022-11-24T18:36:36.435Z,22.05
2022-11-24T18:39:04.575Z,20.52
2022-11-24T18:41:31.758Z,23.42
2022-11-24T18:44:02.083Z,18.20
2022-11-24T18:46:28.722Z,21.70
2022-11-24T18:48:55.086Z,21.98
2022-11-24T18:51:23.021Z,21.60
2022-11-24T18:53:54.203Z,28.73
2022-11-24T18:56:21.003Z,23.52
2022-11-24T18:58:47.484Z,27.23
2022-11-24T19:01:16.494Z,29.42
2022-11-24T19:03:49.339Z,20.90
2022-11-24T19:06:21.094Z,25.75
2022-11-24T19:08:47.938Z,24.25
2022-11-24T19:11:19.822Z,45.95
2022-11-24T19:13:47.684Z,19.40
2022-11-24T19:16:15.551Z,23.58
2022-11-24T19:18:42.365Z,21.65
2022-11-24T19:21:08.874Z,20.27
2022-11-24T19:23:35.663Z,20.02
2022-11-24T19:26:03.691Z,22.83
2022-11-24T19:28:30.335Z,24.25
2022-11-24T19:31:08.223Z,23.00
2022-11-24T19:33:35.003Z,23.75
2022-11-24T19:36:06.274Z,28.45
2022-11-24T19:38:33.815Z,22.58
2022-11-24T19:41:21.816Z,19.95
2022-11-24T19:43:48.490Z,18.98
2022-11-24T19:46:18.695Z,20.80
2022-11-24T19:48:48.543Z,20.65
2022-11-24T19:51:17.498Z,20.63
2022-11-24T19:53:45.191Z,19.95
2022-11-24T19:56:22.576Z,23.90
2022-11-24T19:58:49.968Z,24.60
2022-11-24T20:01:30.848Z,21.70
2022-11-24T20:04:05.012Z,20.50
2022-11-24T20:06:34.427Z,20.48
2022-11-24T20:09:00.998Z,21.58
2022-11-24T20:11:28.539Z,23.52
2022-11-24T20:13:55.258Z,22.55
2022-11-24T20:16:27.897Z,24.83
2022-11-24T20:18:56.270Z,24.83
2022-11-24T20:21:25.207Z,25.40
2022-11-24T20:23:54.796Z,19.48
2022-11-24T20:26:25.937Z,21.90
2022-11-24T20:28:56.124Z,26.40
2022-11-24T20:31:26.990Z,27.33
2022-11-24T20:33:55.221Z,26.13
2022-11-24T20:36:24.247Z,24.83
2022-11-24T20:38:52.587Z,29.20
2022-11-24T20:41:25.029Z,27.48
2022-11-24T20:43:53.089Z,26.50
2022-11-24T20:46:22.645Z,26.00
2022-11-24T20:48:49.485Z,22.15
2022-11-24T20:51:21.635Z,22.38
2022-11-24T20:53:49.380Z,22.63
2022-11-24T20:56:19.829Z,25.05
2022-11-24T20:58:46.660Z,20.88
2022-11-24T21:01:16.733Z,27.10
2022-11-24T21:03:44.858Z,20.52
2022-11-24T21:06:12.725Z,22.63
2022-11-24T21:08:41.159Z,20.73
2022-11-24T21:11:11.136Z,19.65
2022-11-24T21:13:39.165Z,20.00
2022-11-24T21:16:19.912Z,20.35
2022-11-24T21:18:48.042Z,21.55
2022-11-24T21:21:14.571Z,19.58
2022-11-24T21:23:40.954Z,21.77
2022-11-24T21:26:12.996Z,22.10
2022-11-24T21:28:42.202Z,21.33
2022-11-24T21:31:13.997Z,25.15
2022-11-24T21:33:42.087Z,19.77
2022-11-24T21:36:08.966Z,17.88
2022-11-24T21:38:35.487Z,18.63
2022-11-24T21:41:06.743Z,19.10
2022-11-24T21:43:33.361Z,18.17
2022-11-24T21:46:01.756Z,20.83
2022-11-24T21:48:29.722Z,22.48
2022-11-24T21:50:58.949Z,20.52
2022-11-24T21:53:26.374Z,24.05
2022-11-24T21:56:05.096Z,20.45
2022-11-24T21:58:32.608Z,24.40
2022-11-24T22:01:05.042Z,19.92
2022-11-24T22:03:31.574Z,17.30
2022-11-24T22:05:59.853Z,17.75
2022-11-24T22:08:28.333Z,16.38
2022-11-24T22:11:01.153Z,21.67
2022-11-24T22:13:28.414Z,17.45
2022-11-24T22:16:04.140Z,22.00
2022-11-24T22:18:35.869Z,17.73
2022-11-24T22:21:05.423Z,18.42
2022-11-24T22:23:33.058Z,17.52
2022-11-24T22:26:12.659Z,18.55
2022-11-24T22:28:39.442Z,18.33
2022-11-24T22:31:08.322Z,20.77
2022-11-24T22:33:34.890Z,22.27
2022-11-24T22:36:02.105Z,22.90
2022-11-24T22:38:29.901Z,21.63
2022-11-24T22:41:05.214Z,22.98
2022-11-24T22:43:33.090Z,24.38
2022-11-24T22:46:04.898Z,23.83
2022-11-24T22:48:31.278Z,20.35
2022-11-24T22:51:08.635Z,24.63
2022-11-24T22:53:35.369Z,21.75
2022-11-24T22:56:06.866Z,26.75
2022-11-24T22:58:34.006Z,26.80
2022-11-24T23:01:11.403Z,24.45
2022-11-24T23:03:38.277Z,22.70
2022-11-24T23:06:08.369Z,20.00
2022-11-24T23:08:35.896Z,23.65
2022-11-24T23:11:08.602Z,30.23
2022-11-24T23:13:35.449Z,24.42
2022-11-24T23:16:04.130Z,23.55
2022-11-24T23:18:31.192Z,21.92
2022-11-24T23:21:14.180Z,23.08
2022-11-24T23:23:41.517Z,23.27
2022-11-24T23:26:11.226Z,23.23
2022-11-24T23:28:38.333Z,21.90
2022-11-24T23:31:10.011Z,21.60
2022-11-24T23:33:36.426Z,20.98
2022-11-24T23:36:05.505Z,23.08
2022-11-24T23:38:32.764Z,21.95
2022-11-24T23:41:00.672Z,18.73
2022-11-24T23:43:27.415Z,24.45
2022-11-24T23:45:53.834Z,20.60
2022-11-24T23:48:20.432Z,26.73
2022-11-24T23:50:46.797Z,24.08
2022-11-24T23:53:13.207Z,21.65
2022-11-24T23:55:39.562Z,21.92
2022-11-24T23:58:06.991Z,22.55
